sensor_id;sensor_type;location;lat;lon;timestamp;pressure;altitude;pressure_sealevel;temperature
15626;BMP180;7912;51.376;6.126;2023-06-22T00:32:12;101553.00;;;24.00
15626;BMP180;7912;51.376;6.126;2023-06-22T00:35:50;101542.00;;;24.00
15626;BMP180;7912;51.376;6.126;2023-06-22T00:42:45;101555.00;;;24.00
15626;BMP180;7912;51.376;6.126;2023-06-22T00:45:35;101555.00;;;24.00
15626;BMP180;7912;51.376;6.126;2023-06-22T00:48:07;101551.00;;;24.00
15626;BMP180;7912;51.376;6.126;2023-06-22T00:50:52;101546.00;;;24.00
15626;BMP180;7912;51.376;6.126;2023-06-22T01:17:03;101513.00;;;24.10
15626;BMP180;7912;51.376;6.126;2023-06-22T01:40:17;101506.00;;;24.00
15626;BMP180;7912;51.376;6.126;2023-06-22T01:42:54;101503.00;;;24.00
15626;BMP180;7912;51.376;6.126;2023-06-22T01:45:28;101501.00;;;24.00
15626;BMP180;7912;51.376;6.126;2023-06-22T01:52:54;101505.00;;;23.90
15626;BMP180;7912;51.376;6.126;2023-06-22T01:56:17;101513.00;;;23.90
15626;BMP180;7912;51.376;6.126;2023-06-22T02:03:37;101515.00;;;23.80
15626;BMP180;7912;51.376;6.126;2023-06-22T02:11:03;101498.00;;;23.70
15626;BMP180;7912;51.376;6.126;2023-06-22T02:13:50;101502.00;;;23.70
15626;BMP180;7912;51.376;6.126;2023-06-22T02:29:13;101492.00;;;23.50
15626;BMP180;7912;51.376;6.126;2023-06-22T02:31:59;101492.00;;;23.50
15626;BMP180;7912;51.376;6.126;2023-06-22T02:34:42;101492.00;;;23.50
15626;BMP180;7912;51.376;6.126;2023-06-22T02:46:02;101481.00;;;23.50
15626;BMP180;7912;51.376;6.126;2023-06-22T02:51:51;101479.00;;;23.50
15626;BMP180;7912;51.376;6.126;2023-06-22T02:54:31;101477.00;;;23.60
15626;BMP180;7912;51.376;6.126;2023-06-22T02:57:35;101465.00;;;23.60
15626;BMP180;7912;51.376;6.126;2023-06-22T03:00:08;101472.00;;;23.60
15626;BMP180;7912;51.376;6.126;2023-06-22T03:02:55;101466.00;;;23.60
15626;BMP180;7912;51.376;6.126;2023-06-22T03:05:40;101461.00;;;23.60
15626;BMP180;7912;51.376;6.126;2023-06-22T03:13:16;101459.00;;;23.40
15626;BMP180;7912;51.376;6.126;2023-06-22T03:16:15;101457.00;;;23.40
15626;BMP180;7912;51.376;6.126;2023-06-22T03:21:56;101449.00;;;23.30
15626;BMP180;7912;51.376;6.126;2023-06-22T03:25:12;101439.00;;;23.20
15626;BMP180;7912;51.376;6.126;2023-06-22T03:28:29;101431.00;;;23.20
15626;BMP180;7912;51.376;6.126;2023-06-22T03:31:40;101426.00;;;23.10
15626;BMP180;7912;51.376;6.126;2023-06-22T03:38:49;101437.00;;;23.00
15626;BMP180;7912;51.376;6.126;2023-06-22T03:41:17;101429.00;;;23.10
15626;BMP180;7912;51.376;6.126;2023-06-22T03:44:39;101428.00;;;23.00
15626;BMP180;7912;51.376;6.126;2023-06-22T03:47:39;101428.00;;;23.00
15626;BMP180;7912;51.376;6.126;2023-06-22T03:50:22;101432.00;;;23.00
15626;BMP180;7912;51.376;6.126;2023-06-22T03:52:56;101421.00;;;23.10
15626;BMP180;7912;51.376;6.126;2023-06-22T03:56:15;101433.00;;;23.00
15626;BMP180;7912;51.376;6.126;2023-06-22T03:59:25;101439.00;;;23.00
15626;BMP180;7912;51.376;6.126;2023-06-22T04:02:25;101445.00;;;23.00
15626;BMP180;7912;51.376;6.126;2023-06-22T04:09:12;101424.00;;;23.00
15626;BMP180;7912;51.376;6.126;2023-06-22T04:12:08;101426.00;;;23.00
15626;BMP180;7912;51.376;6.126;2023-06-22T04:14:35;101422.00;;;23.00
15626;BMP180;7912;51.376;6.126;2023-06-22T04:21:13;101428.00;;;23.00
15626;BMP180;7912;51.376;6.126;2023-06-22T04:24:21;101421.00;;;23.00
15626;BMP180;7912;51.376;6.126;2023-06-22T04:36:55;101412.00;;;22.90
15626;BMP180;7912;51.376;6.126;2023-06-22T04:43:11;101408.00;;;23.10
15626;BMP180;7912;51.376;6.126;2023-06-22T04:58:25;101408.00;;;23.30
15626;BMP180;7912;51.376;6.126;2023-06-22T05:23:14;101406.00;;;23.70
15626;BMP180;7912;51.376;6.126;2023-06-22T05:25:43;101410.00;;;23.80
15626;BMP180;7912;51.376;6.126;2023-06-22T05:28:10;101412.00;;;23.80
15626;BMP180;7912;51.376;6.126;2023-06-22T05:30:39;101417.00;;;23.90
15626;BMP180;7912;51.376;6.126;2023-06-22T06:05:55;101431.00;;;24.10
15626;BMP180;7912;51.376;6.126;2023-06-22T06:08:23;101431.00;;;24.10
15626;BMP180;7912;51.376;6.126;2023-06-22T06:10:50;101428.00;;;24.20
15626;BMP180;7912;51.376;6.126;2023-06-22T06:13:19;101424.00;;;24.20
15626;BMP180;7912;51.376;6.126;2023-06-22T06:15:47;101429.00;;;24.30
15626;BMP180;7912;51.376;6.126;2023-06-22T06:18:14;101427.00;;;24.30
15626;BMP180;7912;51.376;6.126;2023-06-22T06:20:42;101434.00;;;24.40
15626;BMP180;7912;51.376;6.126;2023-06-22T06:23:09;101422.00;;;24.40
15626;BMP180;7912;51.376;6.126;2023-06-22T06:25:36;101434.00;;;24.40
15626;BMP180;7912;51.376;6.126;2023-06-22T06:28:04;101427.00;;;24.40
15626;BMP180;7912;51.376;6.126;2023-06-22T06:30:32;101429.00;;;24.40
15626;BMP180;7912;51.376;6.126;2023-06-22T06:33:37;101430.00;;;24.40
15626;BMP180;7912;51.376;6.126;2023-06-22T06:36:05;101428.00;;;24.40
15626;BMP180;7912;51.376;6.126;2023-06-22T06:38:35;101419.00;;;24.40
15626;BMP180;7912;51.376;6.126;2023-06-22T06:41:02;101420.00;;;24.40
15626;BMP180;7912;51.376;6.126;2023-06-22T06:43:29;101415.00;;;24.50
15626;BMP180;7912;51.376;6.126;2023-06-22T06:45:57;101414.00;;;24.50
15626;BMP180;7912;51.376;6.126;2023-06-22T06:48:24;101410.00;;;24.60
15626;BMP180;7912;51.376;6.126;2023-06-22T06:50:52;101418.00;;;24.60
15626;BMP180;7912;51.376;6.126;2023-06-22T06:53:19;101401.00;;;24.70
15626;BMP180;7912;51.376;6.126;2023-06-22T06:55:49;101405.00;;;24.70
15626;BMP180;7912;51.376;6.126;2023-06-22T06:58:16;101402.00;;;24.70
15626;BMP180;7912;51.376;6.126;2023-06-22T07:00:44;101399.00;;;24.70
15626;BMP180;7912;51.376;6.126;2023-06-22T07:03:11;101403.00;;;24.80
15626;BMP180;7912;51.376;6.126;2023-06-22T07:05:39;101391.00;;;24.80
15626;BMP180;7912;51.376;6.126;2023-06-22T07:08:06;101383.00;;;24.80
15626;BMP180;7912;51.376;6.126;2023-06-22T07:10:34;101389.00;;;24.80
15626;BMP180;7912;51.376;6.126;2023-06-22T07:13:01;101385.00;;;24.90
15626;BMP180;7912;51.376;6.126;2023-06-22T07:15:29;101379.00;;;25.00
15626;BMP180;7912;51.376;6.126;2023-06-22T07:17:59;101384.00;;;25.10
15626;BMP180;7912;51.376;6.126;2023-06-22T07:20:26;101380.00;;;25.20
15626;BMP180;7912;51.376;6.126;2023-06-22T07:22:54;101381.00;;;25.30
15626;BMP180;7912;51.376;6.126;2023-06-22T07:25:21;101378.00;;;25.40
15626;BMP180;7912;51.376;6.126;2023-06-22T07:28:07;101381.00;;;25.50
15626;BMP180;7912;51.376;6.126;2023-06-22T07:30:34;101388.00;;;25.60
15626;BMP180;7912;51.376;6.126;2023-06-22T07:33:05;101380.00;;;25.70
15626;BMP180;7912;51.376;6.126;2023-06-22T07:35:35;101371.00;;;25.80
15626;BMP180;7912;51.376;6.126;2023-06-22T07:38:04;101374.00;;;25.90
15626;BMP180;7912;51.376;6.126;2023-06-22T07:40:33;101363.00;;;25.90
15626;BMP180;7912;51.376;6.126;2023-06-22T07:43:03;101362.00;;;26.00
15626;BMP180;7912;51.376;6.126;2023-06-22T07:45:31;101350.00;;;26.10
15626;BMP180;7912;51.376;6.126;2023-06-22T07:48:01;101351.00;;;26.20
15626;BMP180;7912;51.376;6.126;2023-06-22T07:50:29;101348.00;;;26.40
15626;BMP180;7912;51.376;6.126;2023-06-22T07:52:57;101344.00;;;26.50
15626;BMP180;7912;51.376;6.126;2023-06-22T07:55:24;101344.00;;;26.50
15626;BMP180;7912;51.376;6.126;2023-06-22T07:57:51;101340.00;;;26.50
15626;BMP180;7912;51.376;6.126;2023-06-22T08:00:22;101337.00;;;26.60
15626;BMP180;7912;51.376;6.126;2023-06-22T08:02:51;101331.00;;;26.60
15626;BMP180;7912;51.376;6.126;2023-06-22T08:05:19;101322.00;;;26.60
15626;BMP180;7912;51.376;6.126;2023-06-22T08:07:49;101326.00;;;26.60
15626;BMP180;7912;51.376;6.126;2023-06-22T08:10:19;101316.00;;;26.60
15626;BMP180;7912;51.376;6.126;2023-06-22T08:12:47;101305.00;;;26.70
15626;BMP180;7912;51.376;6.126;2023-06-22T08:15:15;101310.00;;;26.70
15626;BMP180;7912;51.376;6.126;2023-06-22T08:17:44;101296.00;;;26.70
15626;BMP180;7912;51.376;6.126;2023-06-22T08:20:12;101291.00;;;26.70
15626;BMP180;7912;51.376;6.126;2023-06-22T08:22:43;101286.00;;;26.80
15626;BMP180;7912;51.376;6.126;2023-06-22T08:25:11;101277.00;;;26.80
15626;BMP180;7912;51.376;6.126;2023-06-22T08:27:40;101275.00;;;26.90
15626;BMP180;7912;51.376;6.126;2023-06-22T08:30:10;101276.00;;;27.00
15626;BMP180;7912;51.376;6.126;2023-06-22T08:32:38;101279.00;;;27.10
15626;BMP180;7912;51.376;6.126;2023-06-22T08:35:06;101271.00;;;27.20
15626;BMP180;7912;51.376;6.126;2023-06-22T08:37:36;101271.00;;;27.30
15626;BMP180;7912;51.376;6.126;2023-06-22T08:40:09;101262.00;;;27.50
15626;BMP180;7912;51.376;6.126;2023-06-22T08:42:37;101262.00;;;27.60
15626;BMP180;7912;51.376;6.126;2023-06-22T08:48:29;101261.00;;;27.90
15626;BMP180;7912;51.376;6.126;2023-06-22T08:50:57;101256.00;;;28.10
15626;BMP180;7912;51.376;6.126;2023-06-22T08:53:24;101265.00;;;28.30
15626;BMP180;7912;51.376;6.126;2023-06-22T08:55:51;101260.00;;;28.40
15626;BMP180;7912;51.376;6.126;2023-06-22T08:58:19;101263.00;;;28.60
15626;BMP180;7912;51.376;6.126;2023-06-22T09:00:48;101263.00;;;28.60
15626;BMP180;7912;51.376;6.126;2023-06-22T09:03:18;101271.00;;;28.60
15626;BMP180;7912;51.376;6.126;2023-06-22T09:05:47;101266.00;;;28.80
15626;BMP180;7912;51.376;6.126;2023-06-22T09:08:15;101261.00;;;28.80
15626;BMP180;7912;51.376;6.126;2023-06-22T09:10:45;101258.00;;;29.00
15626;BMP180;7912;51.376;6.126;2023-06-22T09:13:15;101254.00;;;29.20
15626;BMP180;7912;51.376;6.126;2023-06-22T09:15:44;101241.00;;;29.60
15626;BMP180;7912;51.376;6.126;2023-06-22T09:18:13;101241.00;;;30.10
15626;BMP180;7912;51.376;6.126;2023-06-22T09:20:41;101245.00;;;30.40
15626;BMP180;7912;51.376;6.126;2023-06-22T09:23:11;101245.00;;;30.50
15626;BMP180;7912;51.376;6.126;2023-06-22T09:25:40;101244.00;;;30.50
15626;BMP180;7912;51.376;6.126;2023-06-22T09:28:08;101249.00;;;30.40
15626;BMP180;7912;51.376;6.126;2023-06-22T09:30:36;101248.00;;;30.30
15626;BMP180;7912;51.376;6.126;2023-06-22T09:33:03;101255.00;;;30.10
15626;BMP180;7912;51.376;6.126;2023-06-22T09:35:33;101258.00;;;29.90
15626;BMP180;7912;51.376;6.126;2023-06-22T09:38:08;101270.00;;;29.80
15626;BMP180;7912;51.376;6.126;2023-06-22T09:40:35;101266.00;;;29.50
15626;BMP180;7912;51.376;6.126;2023-06-22T09:43:10;101259.00;;;29.30
15626;BMP180;7912;51.376;6.126;2023-06-22T09:45:41;101257.00;;;29.20
15626;BMP180;7912;51.376;6.126;2023-06-22T09:48:11;101253.00;;;29.00
15626;BMP180;7912;51.376;6.126;2023-06-22T09:50:39;101251.00;;;28.80
15626;BMP180;7912;51.376;6.126;2023-06-22T09:53:06;101234.00;;;28.70
15626;BMP180;7912;51.376;6.126;2023-06-22T09:55:34;101254.00;;;28.60
15626;BMP180;7912;51.376;6.126;2023-06-22T09:58:01;101241.00;;;28.50
15626;BMP180;7912;51.376;6.126;2023-06-22T10:00:28;101245.00;;;28.40
15626;BMP180;7912;51.376;6.126;2023-06-22T10:02:57;101241.00;;;28.30
15626;BMP180;7912;51.376;6.126;2023-06-22T10:05:27;101236.00;;;28.20
15626;BMP180;7912;51.376;6.126;2023-06-22T10:07:55;101237.00;;;28.30
15626;BMP180;7912;51.376;6.126;2023-06-22T10:10:22;101237.00;;;28.40
15626;BMP180;7912;51.376;6.126;2023-06-22T10:12:57;101237.00;;;28.50
15626;BMP180;7912;51.376;6.126;2023-06-22T10:15:24;101247.00;;;28.60
15626;BMP180;7912;51.376;6.126;2023-06-22T10:17:54;101245.00;;;28.70
15626;BMP180;7912;51.376;6.126;2023-06-22T10:20:22;101248.00;;;28.80
15626;BMP180;7912;51.376;6.126;2023-06-22T10:22:49;101242.00;;;28.80
15626;BMP180;7912;51.376;6.126;2023-06-22T10:25:18;101249.00;;;28.80
15626;BMP180;7912;51.376;6.126;2023-06-22T10:27:45;101263.00;;;28.80
15626;BMP180;7912;51.376;6.126;2023-06-22T10:30:13;101256.00;;;28.80
15626;BMP180;7912;51.376;6.126;2023-06-22T10:32:42;101262.00;;;28.60
15626;BMP180;7912;51.376;6.126;2023-06-22T10:35:11;101264.00;;;28.50
15626;BMP180;7912;51.376;6.126;2023-06-22T10:37:42;101264.00;;;28.40
15626;BMP180;7912;51.376;6.126;2023-06-22T10:40:15;101275.00;;;28.40
15626;BMP180;7912;51.376;6.126;2023-06-22T10:42:43;101274.00;;;28.40
15626;BMP180;7912;51.376;6.126;2023-06-22T10:45:10;101274.00;;;28.40
15626;BMP180;7912;51.376;6.126;2023-06-22T10:47:38;101271.00;;;28.30
15626;BMP180;7912;51.376;6.126;2023-06-22T10:50:06;101267.00;;;28.30
15626;BMP180;7912;51.376;6.126;2023-06-22T10:52:33;101262.00;;;28.30
15626;BMP180;7912;51.376;6.126;2023-06-22T10:55:01;101264.00;;;28.30
15626;BMP180;7912;51.376;6.126;2023-06-22T10:57:28;101267.00;;;28.40
15626;BMP180;7912;51.376;6.126;2023-06-22T10:59:56;101267.00;;;28.40
15626;BMP180;7912;51.376;6.126;2023-06-22T11:02:24;101278.00;;;28.30
15626;BMP180;7912;51.376;6.126;2023-06-22T11:04:53;101272.00;;;28.10
15626;BMP180;7912;51.376;6.126;2023-06-22T11:07:20;101273.00;;;27.90
15626;BMP180;7912;51.376;6.126;2023-06-22T11:09:47;101266.00;;;27.80
15626;BMP180;7912;51.376;6.126;2023-06-22T11:12:15;101265.00;;;27.60
15626;BMP180;7912;51.376;6.126;2023-06-22T11:14:44;101256.00;;;27.40
15626;BMP180;7912;51.376;6.126;2023-06-22T11:17:11;101265.00;;;27.30
15626;BMP180;7912;51.376;6.126;2023-06-22T11:19:39;101263.00;;;27.30
15626;BMP180;7912;51.376;6.126;2023-06-22T11:22:06;101253.00;;;27.30
15626;BMP180;7912;51.376;6.126;2023-06-22T11:24:33;101255.00;;;27.20
15626;BMP180;7912;51.376;6.126;2023-06-22T11:27:00;101248.00;;;27.20
15626;BMP180;7912;51.376;6.126;2023-06-22T11:32:52;101226.00;;;27.00
15626;BMP180;7912;51.376;6.126;2023-06-22T11:35:19;101227.00;;;27.00
15626;BMP180;7912;51.376;6.126;2023-06-22T11:37:52;101211.00;;;26.90
15626;BMP180;7912;51.376;6.126;2023-06-22T11:40:20;101186.00;;;26.70
15626;BMP180;7912;51.376;6.126;2023-06-22T11:42:47;101179.00;;;26.60
15626;BMP180;7912;51.376;6.126;2023-06-22T11:45:15;101160.00;;;26.50
15626;BMP180;7912;51.376;6.126;2023-06-22T11:47:43;101158.00;;;26.40
15626;BMP180;7912;51.376;6.126;2023-06-22T11:50:10;101157.00;;;26.30
15626;BMP180;7912;51.376;6.126;2023-06-22T11:52:38;101162.00;;;26.20
15626;BMP180;7912;51.376;6.126;2023-06-22T11:55:08;101176.00;;;26.10
15626;BMP180;7912;51.376;6.126;2023-06-22T11:57:53;101181.00;;;26.10
15626;BMP180;7912;51.376;6.126;2023-06-22T12:00:21;101176.00;;;26.20
15626;BMP180;7912;51.376;6.126;2023-06-22T12:02:55;101164.00;;;26.20
15626;BMP180;7912;51.376;6.126;2023-06-22T12:05:26;101165.00;;;26.30
15626;BMP180;7912;51.376;6.126;2023-06-22T12:07:54;101164.00;;;26.40
15626;BMP180;7912;51.376;6.126;2023-06-22T12:10:26;101165.00;;;26.60
15626;BMP180;7912;51.376;6.126;2023-06-22T12:12:59;101150.00;;;26.90
15626;BMP180;7912;51.376;6.126;2023-06-22T12:15:27;101154.00;;;27.20
15626;BMP180;7912;51.376;6.126;2023-06-22T12:17:54;101152.00;;;27.40
15626;BMP180;7912;51.376;6.126;2023-06-22T12:20:21;101143.00;;;27.50
15626;BMP180;7912;51.376;6.126;2023-06-22T12:22:52;101138.00;;;27.60
15626;BMP180;7912;51.376;6.126;2023-06-22T12:25:21;101130.00;;;27.60
15626;BMP180;7912;51.376;6.126;2023-06-22T12:27:49;101134.00;;;27.70
15626;BMP180;7912;51.376;6.126;2023-06-22T12:30:16;101124.00;;;27.70
15626;BMP180;7912;51.376;6.126;2023-06-22T12:32:44;101120.00;;;27.70
15626;BMP180;7912;51.376;6.126;2023-06-22T12:35:11;101142.00;;;27.60
15626;BMP180;7912;51.376;6.126;2023-06-22T12:37:44;101144.00;;;27.50
15626;BMP180;7912;51.376;6.126;2023-06-22T12:40:11;101134.00;;;27.40
15626;BMP180;7912;51.376;6.126;2023-06-22T12:42:39;101120.00;;;27.30
15626;BMP180;7912;51.376;6.126;2023-06-22T12:45:07;101131.00;;;27.20
15626;BMP180;7912;51.376;6.126;2023-06-22T12:47:37;101127.00;;;27.10
15626;BMP180;7912;51.376;6.126;2023-06-22T12:50:06;101121.00;;;27.10
15626;BMP180;7912;51.376;6.126;2023-06-22T12:52:35;101111.00;;;27.00
15626;BMP180;7912;51.376;6.126;2023-06-22T12:55:03;101117.00;;;27.00
15626;BMP180;7912;51.376;6.126;2023-06-22T12:57:30;101118.00;;;26.90
15626;BMP180;7912;51.376;6.126;2023-06-22T12:59:59;101121.00;;;26.90
15626;BMP180;7912;51.376;6.126;2023-06-22T13:02:28;101118.00;;;26.80
15626;BMP180;7912;51.376;6.126;2023-06-22T13:04:55;101127.00;;;26.80
15626;BMP180;7912;51.376;6.126;2023-06-22T13:07:25;101120.00;;;26.80
15626;BMP180;7912;51.376;6.126;2023-06-22T13:09:56;101104.00;;;26.80
15626;BMP180;7912;51.376;6.126;2023-06-22T13:12:25;101099.00;;;26.80
15626;BMP180;7912;51.376;6.126;2023-06-22T13:14:53;101118.00;;;26.90
15626;BMP180;7912;51.376;6.126;2023-06-22T13:17:21;101101.00;;;26.90
15626;BMP180;7912;51.376;6.126;2023-06-22T13:19:51;101081.00;;;26.90
15626;BMP180;7912;51.376;6.126;2023-06-22T13:22:35;101066.00;;;26.80
15626;BMP180;7912;51.376;6.126;2023-06-22T13:25:11;101071.00;;;26.80
15626;BMP180;7912;51.376;6.126;2023-06-22T13:27:41;101067.00;;;26.80
15626;BMP180;7912;51.376;6.126;2023-06-22T13:30:46;101062.00;;;26.70
15626;BMP180;7912;51.376;6.126;2023-06-22T13:33:16;101054.00;;;26.70
15626;BMP180;7912;51.376;6.126;2023-06-22T13:35:44;101047.00;;;26.60
15626;BMP180;7912;51.376;6.126;2023-06-22T13:38:11;101035.00;;;26.70
15626;BMP180;7912;51.376;6.126;2023-06-22T13:40:38;101043.00;;;26.60
15626;BMP180;7912;51.376;6.126;2023-06-22T13:43:06;101038.00;;;26.60
15626;BMP180;7912;51.376;6.126;2023-06-22T13:45:34;101041.00;;;26.60
15626;BMP180;7912;51.376;6.126;2023-06-22T13:48:01;101029.00;;;26.50
15626;BMP180;7912;51.376;6.126;2023-06-22T13:50:32;101017.00;;;26.40
15626;BMP180;7912;51.376;6.126;2023-06-22T13:52:59;101011.00;;;26.20
15626;BMP180;7912;51.376;6.126;2023-06-22T13:55:50;101013.00;;;26.10
15626;BMP180;7912;51.376;6.126;2023-06-22T13:58:17;101016.00;;;26.10
15626;BMP180;7912;51.376;6.126;2023-06-22T14:00:48;101018.00;;;26.10
15626;BMP180;7912;51.376;6.126;2023-06-22T14:03:16;101021.00;;;26.10
15626;BMP180;7912;51.376;6.126;2023-06-22T14:05:43;101025.00;;;26.10
15626;BMP180;7912;51.376;6.126;2023-06-22T14:08:12;101014.00;;;26.10
15626;BMP180;7912;51.376;6.126;2023-06-22T14:10:59;101034.00;;;26.10
15626;BMP180;7912;51.376;6.126;2023-06-22T14:13:27;101005.00;;;26.00
15626;BMP180;7912;51.376;6.126;2023-06-22T14:15:54;101002.00;;;25.90
15626;BMP180;7912;51.376;6.126;2023-06-22T14:18:21;100998.00;;;25.90
15626;BMP180;7912;51.376;6.126;2023-06-22T14:20:55;100996.00;;;25.90
15626;BMP180;7912;51.376;6.126;2023-06-22T14:23:27;101002.00;;;25.90
15626;BMP180;7912;51.376;6.126;2023-06-22T14:25:54;101006.00;;;25.80
15626;BMP180;7912;51.376;6.126;2023-06-22T14:32:35;100997.00;;;25.60
15626;BMP180;7912;51.376;6.126;2023-06-22T14:35:05;100992.00;;;25.60
15626;BMP180;7912;51.376;6.126;2023-06-22T14:37:33;100977.00;;;25.50
15626;BMP180;7912;51.376;6.126;2023-06-22T14:40:04;100971.00;;;25.50
15626;BMP180;7912;51.376;6.126;2023-06-22T14:42:31;100946.00;;;25.50
15626;BMP180;7912;51.376;6.126;2023-06-22T14:44:58;100942.00;;;25.40
15626;BMP180;7912;51.376;6.126;2023-06-22T14:47:26;100925.00;;;25.40
15626;BMP180;7912;51.376;6.126;2023-06-22T14:49:55;100917.00;;;25.30
15626;BMP180;7912;51.376;6.126;2023-06-22T14:52:23;100912.00;;;25.30
15626;BMP180;7912;51.376;6.126;2023-06-22T14:54:50;100909.00;;;25.20
15626;BMP180;7912;51.376;6.126;2023-06-22T14:57:19;100901.00;;;25.20
15626;BMP180;7912;51.376;6.126;2023-06-22T14:59:47;100905.00;;;25.10
15626;BMP180;7912;51.376;6.126;2023-06-22T15:02:16;100913.00;;;25.00
15626;BMP180;7912;51.376;6.126;2023-06-22T15:04:44;100919.00;;;24.90
15626;BMP180;7912;51.376;6.126;2023-06-22T15:07:35;100909.00;;;24.80
15626;BMP180;7912;51.376;6.126;2023-06-22T15:10:10;100897.00;;;24.70
15626;BMP180;7912;51.376;6.126;2023-06-22T15:12:38;100914.00;;;24.70
15626;BMP180;7912;51.376;6.126;2023-06-22T15:15:06;100914.00;;;24.60
15626;BMP180;7912;51.376;6.126;2023-06-22T15:17:34;100927.00;;;24.50
15626;BMP180;7912;51.376;6.126;2023-06-22T15:20:02;100948.00;;;24.40
15626;BMP180;7912;51.376;6.126;2023-06-22T15:22:32;100938.00;;;24.30
15626;BMP180;7912;51.376;6.126;2023-06-22T15:32:25;100900.00;;;23.80
15626;BMP180;7912;51.376;6.126;2023-06-22T15:34:56;100866.00;;;23.70
15626;BMP180;7912;51.376;6.126;2023-06-22T15:37:24;100861.00;;;23.70
15626;BMP180;7912;51.376;6.126;2023-06-22T15:39:52;100875.00;;;23.50
15626;BMP180;7912;51.376;6.126;2023-06-22T15:42:20;100884.00;;;23.50
15626;BMP180;7912;51.376;6.126;2023-06-22T15:44:47;100882.00;;;23.40
15626;BMP180;7912;51.376;6.126;2023-06-22T15:47:14;100911.00;;;23.30
15626;BMP180;7912;51.376;6.126;2023-06-22T15:49:43;100920.00;;;23.30
15626;BMP180;7912;51.376;6.126;2023-06-22T15:52:11;100919.00;;;23.20
15626;BMP180;7912;51.376;6.126;2023-06-22T15:55:20;100920.00;;;23.20
15626;BMP180;7912;51.376;6.126;2023-06-22T15:57:47;100923.00;;;23.10
15626;BMP180;7912;51.376;6.126;2023-06-22T16:00:17;100918.00;;;23.10
15626;BMP180;7912;51.376;6.126;2023-06-22T16:02:46;100912.00;;;23.10
15626;BMP180;7912;51.376;6.126;2023-06-22T16:05:14;100904.00;;;23.00
15626;BMP180;7912;51.376;6.126;2023-06-22T16:07:43;100901.00;;;23.00
15626;BMP180;7912;51.376;6.126;2023-06-22T16:10:11;100877.00;;;22.90
15626;BMP180;7912;51.376;6.126;2023-06-22T16:12:43;100884.00;;;22.90
15626;BMP180;7912;51.376;6.126;2023-06-22T16:15:12;100873.00;;;22.80
15626;BMP180;7912;51.376;6.126;2023-06-22T16:17:39;100884.00;;;22.70
15626;BMP180;7912;51.376;6.126;2023-06-22T16:20:08;100877.00;;;22.70
15626;BMP180;7912;51.376;6.126;2023-06-22T16:22:40;100883.00;;;22.60
15626;BMP180;7912;51.376;6.126;2023-06-22T16:25:08;100919.00;;;22.60
15626;BMP180;7912;51.376;6.126;2023-06-22T16:27:36;100910.00;;;22.60
15626;BMP180;7912;51.376;6.126;2023-06-22T16:30:07;100915.00;;;22.60
15626;BMP180;7912;51.376;6.126;2023-06-22T16:32:37;100912.00;;;22.60
15626;BMP180;7912;51.376;6.126;2023-06-22T16:35:04;100895.00;;;22.50
15626;BMP180;7912;51.376;6.126;2023-06-22T16:37:32;100904.00;;;22.50
15626;BMP180;7912;51.376;6.126;2023-06-22T16:39:59;100910.00;;;22.50
15626;BMP180;7912;51.376;6.126;2023-06-22T16:42:27;100907.00;;;22.50
15626;BMP180;7912;51.376;6.126;2023-06-22T16:44:54;100895.00;;;22.50
15626;BMP180;7912;51.376;6.126;2023-06-22T16:47:22;100897.00;;;22.50
15626;BMP180;7912;51.376;6.126;2023-06-22T16:49:49;100903.00;;;22.40
15626;BMP180;7912;51.376;6.126;2023-06-22T16:52:18;100907.00;;;22.40
15626;BMP180;7912;51.376;6.126;2023-06-22T16:54:47;100910.00;;;22.30
15626;BMP180;7912;51.376;6.126;2023-06-22T16:57:26;100904.00;;;22.20
15626;BMP180;7912;51.376;6.126;2023-06-22T16:59:56;100909.00;;;22.20
15626;BMP180;7912;51.376;6.126;2023-06-22T17:02:25;100918.00;;;22.10
15626;BMP180;7912;51.376;6.126;2023-06-22T17:04:54;100889.00;;;22.00
15626;BMP180;7912;51.376;6.126;2023-06-22T17:07:26;100888.00;;;22.00
15626;BMP180;7912;51.376;6.126;2023-06-22T17:09:56;100893.00;;;21.90
15626;BMP180;7912;51.376;6.126;2023-06-22T17:12:25;100891.00;;;21.80
15626;BMP180;7912;51.376;6.126;2023-06-22T17:14:57;100901.00;;;21.80
15626;BMP180;7912;51.376;6.126;2023-06-22T17:17:27;100925.00;;;21.70
15626;BMP180;7912;51.376;6.126;2023-06-22T17:19:56;100914.00;;;21.70
15626;BMP180;7912;51.376;6.126;2023-06-22T17:22:24;100920.00;;;21.70
15626;BMP180;7912;51.376;6.126;2023-06-22T17:24:51;100910.00;;;21.70
15626;BMP180;7912;51.376;6.126;2023-06-22T17:27:29;100907.00;;;21.70
15626;BMP180;7912;51.376;6.126;2023-06-22T17:30:10;100920.00;;;21.70
15626;BMP180;7912;51.376;6.126;2023-06-22T17:32:37;100932.00;;;21.60
15626;BMP180;7912;51.376;6.126;2023-06-22T17:35:06;100920.00;;;21.60
15626;BMP180;7912;51.376;6.126;2023-06-22T17:37:50;100932.00;;;21.60
15626;BMP180;7912;51.376;6.126;2023-06-22T17:40:22;100924.00;;;21.60
15626;BMP180;7912;51.376;6.126;2023-06-22T17:42:50;100922.00;;;21.60
15626;BMP180;7912;51.376;6.126;2023-06-22T17:45:21;100926.00;;;21.50
15626;BMP180;7912;51.376;6.126;2023-06-22T17:47:52;100923.00;;;21.50
15626;BMP180;7912;51.376;6.126;2023-06-22T17:50:25;100933.00;;;21.50
15626;BMP180;7912;51.376;6.126;2023-06-22T17:52:54;100927.00;;;21.50
15626;BMP180;7912;51.376;6.126;2023-06-22T17:55:24;100930.00;;;21.50
15626;BMP180;7912;51.376;6.126;2023-06-22T17:57:57;100922.00;;;21.50
15626;BMP180;7912;51.376;6.126;2023-06-22T18:00:26;100929.00;;;21.40
15626;BMP180;7912;51.376;6.126;2023-06-22T18:02:55;100937.00;;;21.50
15626;BMP180;7912;51.376;6.126;2023-06-22T18:05:35;100934.00;;;21.50
15626;BMP180;7912;51.376;6.126;2023-06-22T18:08:06;100930.00;;;21.40
15626;BMP180;7912;51.376;6.126;2023-06-22T18:10:38;100932.00;;;21.40
15626;BMP180;7912;51.376;6.126;2023-06-22T18:13:08;100933.00;;;21.40
15626;BMP180;7912;51.376;6.126;2023-06-22T18:15:37;100922.00;;;21.40
15626;BMP180;7912;51.376;6.126;2023-06-22T18:18:06;100932.00;;;21.40
15626;BMP180;7912;51.376;6.126;2023-06-22T18:20:36;100935.00;;;21.40
15626;BMP180;7912;51.376;6.126;2023-06-22T18:23:09;100953.00;;;21.40
15626;BMP180;7912;51.376;6.126;2023-06-22T18:25:37;100929.00;;;21.30
15626;BMP180;7912;51.376;6.126;2023-06-22T18:28:06;100936.00;;;21.30
15626;BMP180;7912;51.376;6.126;2023-06-22T18:30:34;100950.00;;;21.20
15626;BMP180;7912;51.376;6.126;2023-06-22T18:33:02;100951.00;;;21.20
15626;BMP180;7912;51.376;6.126;2023-06-22T18:35:30;100962.00;;;21.20